createdAt,value
2022-12-25T00:00:42.652Z,9.15
2022-12-25T00:03:09.876Z,9.17
2022-12-25T00:05:39.031Z,9.22
2022-12-25T00:08:07.231Z,9.24
2022-12-25T00:10:35.008Z,9.22
2022-12-25T00:13:04.234Z,9.24
2022-12-25T00:15:31.042Z,9.30
2022-12-25T00:17:57.712Z,9.23
2022-12-25T00:20:24.412Z,9.27
2022-12-25T00:22:51.202Z,9.26
2022-12-25T00:25:17.855Z,9.21
2022-12-25T00:27:44.586Z,9.17
2022-12-25T00:30:12.503Z,9.03
2022-12-25T00:32:39.478Z,8.95
2022-12-25T00:35:06.659Z,8.92
2022-12-25T00:37:33.376Z,8.88
2022-12-25T00:40:00.133Z,8.89
2022-12-25T00:42:28.540Z,8.97
2022-12-25T00:44:55.217Z,8.99
2022-12-25T00:47:22.169Z,8.91
2022-12-25T00:49:48.862Z,8.89
2022-12-25T00:52:15.563Z,8.88
2022-12-25T00:54:42.314Z,8.91
2022-12-25T00:57:09.281Z,8.95
2022-12-25T00:59:36.239Z,8.96
2022-12-25T01:02:21.812Z,9.01
2022-12-25T01:04:49.410Z,9.01
2022-12-25T01:07:19.426Z,8.99
2022-12-25T01:10:05.617Z,9.05
2022-12-25T01:12:35.092Z,9.01
2022-12-25T01:15:01.753Z,9.00
2022-12-25T01:17:28.479Z,9.01
2022-12-25T01:19:55.325Z,9.01
2022-12-25T01:22:22.110Z,9.05
2022-12-25T01:24:48.864Z,9.06
2022-12-25T01:27:15.638Z,9.04
2022-12-25T01:29:42.444Z,8.97
2022-12-25T01:32:09.191Z,9.11
2022-12-25T01:34:35.967Z,9.15
2022-12-25T01:37:02.654Z,9.11
2022-12-25T01:39:29.535Z,9.09
2022-12-25T01:41:56.390Z,9.12
2022-12-25T01:44:35.250Z,9.10
2022-12-25T01:47:05.965Z,9.06
2022-12-25T01:49:36.100Z,9.08
2022-12-25T01:52:10.834Z,9.09
2022-12-25T01:54:41.820Z,8.99
2022-12-25T01:57:14.836Z,8.93
2022-12-25T01:59:42.028Z,8.96
2022-12-25T02:02:08.929Z,8.93
2022-12-25T02:04:45.723Z,8.97
2022-12-25T02:07:17.989Z,8.99
2022-12-25T02:09:45.674Z,9.07
2022-12-25T02:12:22.188Z,9.08
2022-12-25T02:14:51.396Z,9.14
2022-12-25T02:17:39.620Z,9.18
2022-12-25T02:20:38.179Z,9.23
2022-12-25T02:23:05.544Z,9.18
2022-12-25T02:26:03.351Z,9.27
2022-12-25T02:28:46.050Z,9.29
2022-12-25T02:31:41.969Z,9.33
2022-12-25T02:34:21.783Z,9.31
2022-12-25T02:37:14.300Z,9.26
2022-12-25T02:39:59.143Z,9.24
2022-12-25T02:42:51.412Z,9.28
2022-12-25T02:45:42.915Z,9.28
2022-12-25T02:48:31.165Z,9.27
2022-12-25T02:51:20.107Z,9.28
2022-12-25T02:54:07.482Z,9.38
2022-12-25T02:56:55.384Z,9.43
2022-12-25T02:59:41.586Z,9.43
2022-12-25T03:02:27.622Z,9.43
2022-12-25T03:05:15.512Z,9.42
2022-12-25T03:07:44.146Z,9.41
2022-12-25T03:10:33.359Z,9.30
2022-12-25T03:13:20.266Z,9.21
2022-12-25T03:16:06.660Z,9.19
2022-12-25T03:18:34.874Z,9.16
2022-12-25T03:21:20.237Z,9.12
2022-12-25T03:24:11.052Z,9.09
2022-12-25T03:26:56.682Z,9.06
2022-12-25T03:29:50.386Z,9.09
2022-12-25T03:32:19.790Z,9.07
2022-12-25T03:35:23.319Z,9.03
2022-12-25T03:38:31.397Z,8.95
2022-12-25T03:41:44.457Z,8.86
2022-12-25T03:44:52.801Z,8.82
2022-12-25T03:47:43.542Z,8.80
2022-12-25T03:51:06.413Z,8.82
2022-12-25T03:54:00.200Z,8.82
2022-12-25T03:56:47.095Z,8.80
2022-12-25T03:59:45.941Z,8.81
2022-12-25T04:02:31.530Z,8.82
2022-12-25T04:05:16.940Z,8.80
2022-12-25T04:08:02.538Z,8.82
2022-12-25T04:10:47.823Z,8.84
2022-12-25T04:13:34.078Z,8.84
2022-12-25T04:16:19.483Z,8.79
2022-12-25T04:19:04.938Z,8.76
2022-12-25T04:21:57.998Z,8.74
2022-12-25T04:24:43.360Z,8.68
2022-12-25T04:27:28.907Z,8.72
2022-12-25T04:30:14.094Z,8.69
2022-12-25T04:32:59.477Z,8.64
2022-12-25T04:35:44.687Z,8.62
2022-12-25T04:38:11.452Z,8.55
2022-12-25T04:40:38.103Z,8.53
2022-12-25T04:43:04.923Z,8.50
2022-12-25T04:45:31.706Z,8.54
2022-12-25T04:48:01.211Z,8.54
2022-12-25T04:50:27.931Z,8.59
2022-12-25T04:52:54.682Z,8.60
2022-12-25T04:55:21.451Z,8.60
2022-12-25T04:57:48.215Z,8.57
2022-12-25T05:00:15.232Z,8.58
2022-12-25T05:02:42.104Z,8.64
2022-12-25T05:05:09.095Z,8.66
2022-12-25T05:07:35.763Z,8.64
2022-12-25T05:10:02.894Z,8.65
2022-12-25T05:12:29.519Z,8.65
2022-12-25T05:14:56.252Z,8.68
2022-12-25T05:17:23.087Z,8.65
2022-12-25T05:19:49.735Z,8.65
2022-12-25T05:22:16.446Z,8.61
2022-12-25T05:24:43.134Z,8.60
2022-12-25T05:27:09.876Z,8.56
2022-12-25T05:29:36.556Z,8.59
2022-12-25T05:32:03.444Z,8.68
2022-12-25T05:34:30.136Z,8.75
2022-12-25T05:36:57.219Z,8.69
2022-12-25T05:39:24.363Z,8.74
2022-12-25T05:41:51.106Z,8.78
2022-12-25T05:44:17.863Z,8.75
2022-12-25T05:46:44.573Z,8.71
2022-12-25T05:49:11.421Z,8.64
2022-12-25T05:51:38.074Z,8.64
2022-12-25T05:54:04.915Z,8.62
2022-12-25T05:56:31.675Z,8.62
2022-12-25T05:58:58.425Z,8.63
2022-12-25T06:01:28.290Z,8.65
2022-12-25T06:03:55.302Z,8.63
2022-12-25T06:06:21.983Z,8.65
2022-12-25T06:08:48.716Z,8.68
2022-12-25T06:11:15.593Z,8.70
2022-12-25T06:13:42.633Z,8.70
2022-12-25T06:16:11.340Z,8.71
2022-12-25T06:18:44.130Z,8.70
2022-12-25T06:21:12.679Z,8.68
2022-12-25T06:23:39.921Z,8.71
2022-12-25T06:26:08.830Z,8.71
2022-12-25T06:28:36.048Z,8.68
2022-12-25T06:31:08.322Z,8.66
2022-12-25T06:33:35.872Z,8.67
2022-12-25T06:36:11.896Z,8.65
2022-12-25T06:38:38.756Z,8.63
2022-12-25T06:41:11.693Z,8.66
2022-12-25T06:43:38.942Z,8.64
2022-12-25T06:46:11.859Z,8.63
2022-12-25T06:48:41.153Z,8.64
2022-12-25T06:51:08.149Z,8.66
2022-12-25T06:53:40.411Z,8.64
2022-12-25T06:56:15.744Z,8.65
2022-12-25T06:58:44.120Z,8.64
2022-12-25T07:01:17.833Z,8.65
2022-12-25T07:03:46.238Z,8.68
2022-12-25T07:06:13.140Z,8.67
2022-12-25T07:08:39.932Z,8.65
2022-12-25T07:11:07.032Z,8.66
2022-12-25T07:13:33.915Z,8.64
2022-12-25T14:52:42.195Z,11.65
2022-12-25T14:55:19.782Z,11.66
2022-12-25T14:58:06.052Z,11.63
2022-12-25T15:00:38.667Z,11.61
2022-12-25T15:03:21.261Z,11.63
2022-12-25T15:05:58.446Z,11.68
2022-12-25T15:08:25.242Z,11.56
2022-12-25T15:11:02.353Z,11.56
2022-12-25T15:13:31.317Z,11.57
2022-12-25T15:16:13.205Z,11.55
2022-12-25T15:18:43.498Z,11.65
2022-12-25T15:21:20.662Z,11.54
2022-12-25T15:23:47.547Z,11.55
2022-12-25T15:26:14.693Z,11.56
2022-12-25T15:28:41.961Z,11.57
2022-12-25T15:31:32.214Z,11.56
2022-12-25T15:34:01.650Z,11.49
2022-12-25T15:36:29.060Z,11.44
2022-12-25T15:38:56.189Z,11.41
2022-12-25T15:41:46.207Z,11.31
2022-12-25T15:44:13.025Z,11.25
2022-12-25T15:46:40.088Z,11.26
2022-12-25T15:49:07.519Z,11.18
2022-12-25T15:51:34.208Z,11.12
2022-12-25T15:54:00.826Z,11.08
2022-12-25T15:56:28.127Z,11.06
2022-12-25T15:58:55.203Z,11.13
2022-12-25T16:01:22.192Z,11.15
2022-12-25T16:03:49.024Z,11.10
2022-12-25T16:06:17.265Z,11.02
2022-12-25T16:08:44.361Z,11.03
2022-12-25T16:11:11.367Z,11.07
2022-12-25T16:13:38.202Z,11.12
2022-12-25T16:16:06.924Z,11.00
2022-12-25T16:18:33.742Z,10.97
2022-12-25T16:21:00.471Z,10.87
2022-12-25T16:23:27.349Z,10.86
2022-12-25T16:25:54.044Z,10.90
2022-12-25T16:28:20.830Z,10.93
2022-12-25T16:30:47.819Z,11.03
2022-12-25T16:33:14.483Z,10.85
2022-12-25T16:35:41.180Z,10.91
2022-12-25T16:38:07.867Z,10.99
2022-12-25T16:40:34.547Z,10.90
2022-12-25T16:43:01.239Z,10.83
2022-12-25T16:45:28.155Z,10.77
2022-12-25T16:47:56.977Z,10.81
2022-12-25T16:50:23.844Z,10.83
2022-12-25T16:52:50.425Z,10.88
2022-12-25T16:55:17.052Z,10.99
2022-12-25T16:57:43.772Z,11.08
2022-12-25T17:00:12.517Z,11.19
2022-12-25T17:02:41.100Z,11.15
2022-12-25T17:05:08.341Z,11.16
2022-12-25T17:07:36.169Z,11.21
2022-12-25T17:10:04.321Z,11.25
2022-12-25T17:12:30.961Z,11.31
2022-12-25T17:14:57.635Z,11.32
2022-12-25T17:17:24.268Z,11.34
2022-12-25T17:19:50.915Z,11.33
2022-12-25T17:22:17.559Z,11.36
2022-12-25T17:24:44.293Z,11.35
2022-12-25T17:27:11.366Z,11.39
2022-12-25T17:29:41.134Z,11.41
2022-12-25T17:32:10.795Z,11.41
2022-12-25T17:34:38.327Z,11.43
2022-12-25T17:37:05.243Z,11.44
2022-12-25T17:39:31.965Z,11.46
2022-12-25T17:41:58.541Z,11.54
2022-12-25T17:44:25.591Z,11.56
2022-12-25T17:46:52.240Z,11.49
2022-12-25T17:49:20.746Z,11.47
2022-12-25T17:51:47.977Z,11.47
2022-12-25T17:54:14.843Z,11.48
2022-12-25T17:56:41.482Z,11.50
2022-12-25T17:59:10.574Z,11.46
2022-12-25T18:01:38.925Z,11.50
2022-12-25T18:04:06.737Z,11.47
2022-12-25T18:06:35.573Z,11.49
2022-12-25T18:09:02.280Z,11.55
2022-12-25T18:11:33.093Z,11.53
2022-12-25T18:14:02.346Z,11.57
2022-12-25T18:16:31.820Z,11.57
2022-12-25T18:18:59.730Z,11.63
2022-12-25T18:21:26.563Z,11.62
2022-12-25T18:23:53.266Z,11.68
2022-12-25T18:26:20.913Z,11.68
2022-12-25T18:28:48.732Z,11.63
2022-12-25T18:31:21.447Z,11.64
2022-12-25T18:33:49.628Z,11.60
2022-12-25T18:36:20.253Z,11.58
2022-12-25T18:38:48.870Z,11.56
2022-12-25T18:41:16.007Z,11.72
2022-12-25T18:43:52.630Z,11.72
2022-12-25T18:46:24.234Z,11.73
2022-12-25T18:48:51.985Z,11.65
2022-12-25T18:51:18.817Z,11.68
2022-12-25T18:53:45.525Z,11.68
2022-12-25T18:56:15.239Z,11.61
2022-12-25T18:58:41.864Z,11.62
2022-12-25T19:01:12.419Z,11.64
2022-12-25T19:03:39.434Z,11.67
2022-12-25T19:06:06.307Z,11.67
2022-12-25T19:08:32.997Z,11.62
2022-12-25T19:10:59.646Z,11.53
2022-12-25T19:13:27.319Z,11.55
2022-12-25T19:15:58.482Z,11.55
2022-12-25T19:18:25.271Z,11.53
2022-12-25T19:20:52.164Z,11.54
2022-12-25T19:23:18.764Z,11.47
2022-12-25T19:25:45.655Z,11.48
2022-12-25T19:28:12.612Z,11.49
2022-12-25T19:30:39.278Z,11.51
2022-12-25T19:33:07.404Z,11.55
2022-12-25T19:35:39.694Z,11.51
2022-12-25T19:38:06.299Z,11.50
2022-12-25T19:40:37.342Z,11.58
2022-12-25T19:43:03.983Z,11.45
2022-12-25T19:45:30.737Z,11.44
2022-12-25T19:47:58.321Z,11.43
2022-12-25T19:50:28.678Z,11.41
2022-12-25T19:52:55.792Z,11.42
2022-12-25T19:55:22.617Z,11.46
2022-12-25T19:57:49.814Z,11.51
2022-12-25T20:00:16.959Z,11.44
2022-12-25T20:02:43.766Z,11.55
2022-12-25T20:05:10.546Z,11.51
2022-12-25T20:07:37.180Z,11.60
2022-12-25T20:10:03.885Z,11.45
2022-12-25T20:12:30.507Z,11.46
2022-12-25T20:14:57.154Z,11.49
2022-12-25T20:17:23.857Z,11.55
2022-12-25T20:19:50.543Z,11.53
2022-12-25T20:22:17.163Z,11.44
2022-12-25T20:24:43.817Z,11.44
2022-12-25T20:27:10.397Z,11.35
2022-12-25T20:29:36.968Z,11.32
2022-12-25T20:32:03.836Z,11.35
2022-12-25T20:34:33.393Z,11.31
2022-12-25T20:37:00.089Z,11.39
2022-12-25T20:39:26.661Z,11.34
2022-12-25T20:41:53.354Z,11.21
2022-12-25T20:44:20.033Z,11.26
2022-12-25T20:46:46.768Z,11.37
2022-12-25T20:49:13.588Z,11.29
2022-12-25T20:51:42.950Z,11.34
2022-12-25T20:54:10.287Z,11.28
2022-12-25T20:56:38.385Z,11.32
2022-12-25T20:59:05.035Z,11.33
2022-12-25T21:01:31.938Z,11.43
2022-12-25T21:03:59.403Z,11.43
2022-12-25T21:06:26.261Z,11.49
2022-12-25T21:08:53.010Z,11.55
2022-12-25T21:11:21.569Z,11.46
2022-12-25T21:13:49.137Z,11.43
2022-12-25T21:16:18.873Z,11.40
2022-12-25T21:18:46.409Z,11.41
2022-12-25T21:21:13.516Z,11.38
2022-12-25T21:23:40.220Z,11.46
2022-12-25T21:26:21.310Z,11.44
2022-12-25T21:28:50.176Z,11.49
2022-12-25T21:31:17.511Z,11.45
2022-12-25T21:33:53.350Z,11.39
2022-12-25T21:36:34.582Z,11.37
2022-12-25T21:39:04.279Z,11.43
2022-12-25T21:41:33.248Z,11.46
2022-12-25T21:44:00.769Z,11.41
2022-12-25T21:46:27.981Z,11.42
2022-12-25T21:48:55.129Z,11.48
2022-12-25T21:51:43.649Z,11.44
2022-12-25T21:54:12.061Z,11.37
2022-12-25T21:56:44.939Z,11.48
2022-12-25T21:59:15.635Z,11.44
2022-12-25T22:01:43.246Z,11.49
2022-12-25T22:04:11.503Z,11.49
2022-12-25T22:06:57.120Z,11.56
2022-12-25T22:09:24.526Z,11.49
2022-12-25T22:12:09.519Z,11.47
2022-12-25T22:14:56.304Z,11.49
2022-12-25T22:17:43.865Z,11.48
2022-12-25T22:20:23.524Z,11.50
2022-12-25T22:22:50.448Z,11.54
2022-12-25T22:25:18.178Z,11.61
2022-12-25T22:27:46.040Z,11.63
2022-12-25T22:30:20.233Z,11.65
2022-12-25T22:32:47.196Z,11.57
2022-12-25T22:35:15.498Z,11.64
2022-12-25T22:37:42.948Z,11.71
2022-12-25T22:40:12.014Z,11.75
2022-12-25T22:42:40.317Z,11.98
2022-12-25T22:45:07.394Z,11.94
2022-12-25T22:47:34.231Z,12.02
2022-12-25T22:50:01.076Z,11.93
2022-12-25T22:52:27.903Z,11.98
2022-12-25T22:54:54.613Z,12.04
2022-12-25T22:57:21.333Z,12.09
2022-12-25T22:59:47.949Z,12.05
2022-12-25T23:02:14.743Z,11.99
2022-12-25T23:04:41.595Z,11.92
2022-12-25T23:07:08.801Z,12.07
2022-12-25T23:09:35.943Z,12.06
2022-12-25T23:12:02.590Z,12.16
2022-12-25T23:14:38.815Z,12.17
2022-12-25T23:17:31.087Z,12.11
2022-12-25T23:20:18.614Z,12.16
2022-12-25T23:23:04.819Z,12.22
2022-12-25T23:25:50.011Z,12.18
2022-12-25T23:28:36.583Z,12.16
2022-12-25T23:31:03.262Z,12.22
2022-12-25T23:33:29.875Z,12.27
2022-12-25T23:35:56.654Z,12.20
2022-12-25T23:38:23.318Z,12.21
2022-12-25T23:40:50.008Z,12.16
2022-12-25T23:43:16.730Z,12.15
2022-12-25T23:45:43.342Z,12.16
2022-12-25T23:48:09.955Z,12.23
2022-12-25T23:50:37.542Z,12.29
2022-12-25T23:53:04.191Z,12.18
2022-12-25T23:55:30.776Z,12.12
2022-12-25T23:57:57.317Z,12.10
